Flight Track Log - Related Links

Times and Time Zones

All times are in EDT time to prevent confusion due to time zone crossing. See the RPA3341 flight status page for this flight to view local times or setup timezone preferences in your user account.

Time Position Orientation Groundspeed Altitude Reporting Facility
EDT Latitude Longitude Course Direction KTS MPH feet Rate Location/Type
Mon 06:01:13 AM 44.8500 -63.5167 264° West 130 150 1,900  Level Moncton Center
Mon 06:02:13 AM 44.8333 -63.5667 245° Southwest 160 184 3,500 1,900 Climbing Moncton Center
Mon 06:03:13 AM 44.8333 -63.6667 270° West 230 265 5,700 2,500 Climbing Moncton Center
Mon 06:04:00 AM 44.8124 -63.9927 257° West  Level FlightAware Approximate
Mon 06:04:13 AM 44.8167 -63.7667 257° West 250 288 8,500  Level Moncton Center
Mon 06:05:00 AM 44.7965 -64.1162 264° West  Level FlightAware Approximate
Mon 06:05:13 AM 44.8000 -63.8500 254° West 250 288 11,200  Level Moncton Center
Mon 06:06:00 AM 44.7876 -64.2413 264° West  Level FlightAware Approximate
Mon 06:06:13 AM 44.8000 -63.9500 270° West 270 311 13,300  Level Moncton Center
Mon 06:07:13 AM 44.7833 -64.0667 259° West 280 322 15,400 1,950 Climbing Moncton Center
Mon 06:08:13 AM 44.7667 -64.1833 259° West 290 334 17,200 1,750 Climbing Moncton Center
Mon 06:09:13 AM 44.7500 -64.2833 257° West 300 345 18,900 1,650 Climbing Moncton Center
Mon 06:10:13 AM 44.7333 -64.4167 260° West 300 345 20,500 1,500 Climbing Moncton Center
Mon 06:11:13 AM 44.7333 -64.5167 270° West 300 345 21,900 1,400 Climbing Moncton Center
Mon 06:12:13 AM 44.7167 -64.6500 260° West 310 357 23,300 1,400 Climbing Moncton Center
Mon 06:13:13 AM 44.7000 -64.7667 259° West 320 368 24,700 1,400 Climbing Moncton Center
Mon 06:14:13 AM 44.6833 -64.9167 261° West 330 380 26,100 1,350 Climbing Moncton Center
Mon 06:15:13 AM 44.6667 -65.0333 259° West 340 391 27,400 1,250 Climbing Moncton Center
Mon 06:16:13 AM 44.6500 -65.1667 260° West 350 403 28,600 1,200 Climbing Moncton Center
Mon 06:17:13 AM 44.6333 -65.3167 261° West 350 403 29,800 1,200 Climbing Moncton Center
Mon 06:18:13 AM 44.6167 -65.4333 259° West 360 414 31,000 1,050 Climbing Moncton Center
Mon 06:19:13 AM 44.6000 -65.6000 262° West 370 426 31,900 333 Climbing Moncton Center
Mon 06:21:13 AM 44.5667 -65.8833 261° West 360 414 32,000 33 Climbing Moncton Center
Mon 06:22:13 AM 44.5500 -66.0167 260° West 360 414 32,000  Level Moncton Center
Mon 06:23:13 AM 44.5167 -66.1333 248° West 360 414 32,000  Level Moncton Center
Mon 06:24:13 AM 44.5000 -66.2667 260° West 360 414 32,000  Level Moncton Center
Mon 06:25:13 AM 44.4833 -66.4167 261° West 360 414 32,000  Level Moncton Center
Mon 06:26:13 AM 44.4667 -66.5500 260° West 360 414 32,000  Level Moncton Center
Mon 06:27:13 AM 44.4500 -66.7000 261° West 360 414 32,000  Level Moncton Center
Mon 06:28:13 AM 44.4333 -66.8333 260° West 370 426 32,000  Level Moncton Center
Mon 06:29:13 AM 44.4000 -66.9667 251° West 360 414 32,000  Level Moncton Center
Mon 06:30:13 AM 44.3667 -67.1167 253° West 360 414 32,000  Level Moncton Center
Mon 06:30:34 AM 44.3792 -67.1436 303° West 364 419 32,000  Level Boston Center
Mon 06:31:13 AM 44.3333 -67.2500 239° Southwest 360 414 32,000  Level Moncton Center
Mon 06:32:13 AM 44.3167 -67.3667 259° West 360 414 32,000  Level Moncton Center
Mon 06:32:34 AM 44.3119 -67.4108 262° West 369 425 32,000  Level Boston Center
Mon 06:33:35 AM 44.2778 -67.5414 250° West 369 425 32,000  Level Boston Center
Mon 06:34:36 AM 44.2417 -67.6750 249° West 369 425 32,000  Level Boston Center
Mon 06:35:36 AM 44.2075 -67.8053 250° West 369 425 32,000  Level Boston Center
Mon 06:36:34 AM 44.1694 -67.9500 250° West 364 419 32,000  Level Boston Center
Mon 06:37:36 AM 44.1369 -68.0828 251° West 364 419 32,000  Level Boston Center
Mon 06:38:35 AM 44.1003 -68.2128 249° West 364 419 32,000  Level Boston Center
Mon 06:39:36 AM 44.0653 -68.3425 249° West 364 419 32,000  Level Boston Center
Mon 06:40:34 AM 44.0303 -68.4747 250° West 364 419 32,000  Level Boston Center
Mon 06:41:34 AM 43.9972 -68.6042 250° West 359 413 32,000  Level Boston Center
Mon 06:42:34 AM 43.9675 -68.7156 250° West 359 413 32,000  Level Boston Center
Mon 06:43:35 AM 43.9300 -68.8478 249° West 359 413 32,000  Level Boston Center
Mon 06:44:36 AM 43.8944 -68.9739 249° West 359 413 32,000  Level Boston Center
Mon 06:45:34 AM 43.8586 -69.1028 249° West 354 407 32,000  Level Boston Center
Mon 06:46:36 AM 43.8225 -69.2314 249° West 354 407 32,000  Level Boston Center
Mon 06:47:34 AM 43.7867 -69.3597 249° West 354 407 32,000  Level Boston Center
Mon 06:48:35 AM 43.7503 -69.4853 248° West 354 407 32,000  Level Boston Center
Mon 06:49:36 AM 43.7139 -69.6133 249° West 354 407 32,000  Level Boston Center
Mon 06:50:36 AM 43.6775 -69.7417 249° West 354 407 32,000  Level Boston Center
Mon 06:51:34 AM 43.6408 -69.8694 248° West 354 407 32,000  Level Boston Center
Mon 06:52:34 AM 43.6019 -70.0058 249° West 355 409 32,000  Level Boston Center
Mon 06:53:36 AM 43.5692 -70.1306 250° West 355 409 32,000  Level Boston Center
Mon 06:54:34 AM 43.5397 -70.2289 248° West 355 409 32,000  Level Boston Center
Mon 06:55:35 AM 43.4969 -70.3822 249° West 355 409 32,000  Level Boston Center
Mon 06:56:36 AM 43.4594 -70.5122 248° West 355 409 32,000  Level Boston Center
Mon 06:57:36 AM 43.3986 -70.6169 231° Southwest 355 409 32,000  Level Boston Center
Mon 06:58:36 AM 43.2972 -70.6628 198° South 356 410 32,000  Level Boston Center
Mon 06:59:35 AM 43.1917 -70.6972 193° South 367 422 32,000  Level Boston Center
Mon 07:00:36 AM 43.0881 -70.7372 196° South 379 436 32,000  Level Boston Center
Mon 07:01:35 AM 42.9822 -70.7742 194° South 384 442 32,000  Level Boston Center
Mon 07:02:36 AM 42.8786 -70.8108 195° South 389 448 32,000  Level Boston Center
Mon 07:03:36 AM 42.7769 -70.8475 195° South 394 453 32,000  Level Boston Center
Mon 07:04:35 AM 42.6753 -70.8925 198° South 394 453 32,000  Level Boston Center
Mon 07:05:34 AM 42.5953 -70.9736 217° Southwest 371 427 32,000  Level Boston Center
Mon 07:06:35 AM 42.5211 -71.0486 217° Southwest 378 435 32,000  Level Boston Center
Mon 07:07:36 AM 42.4386 -71.1319 217° Southwest 378 435 32,000  Level Boston Center
Mon 07:08:36 AM 42.3603 -71.2094 216° Southwest 373 429 32,000  Level Boston Center
Mon 07:09:34 AM 42.2800 -71.2925 217° Southwest 368 423 32,000 -51 Level Boston Center
Mon 07:10:34 AM 42.1975 -71.3725 216° Southwest 368 423 31,900  Descending Boston Center
Mon 07:11:36 AM 42.1147 -71.4550 216° Southwest 368 423 32,000 50 Climbing Boston Center
Mon 07:12:34 AM 42.0361 -71.5344 217° Southwest 368 423 32,000  Level Boston Center
Mon 07:13:34 AM 41.9411 -71.6167 213° Southwest 368 423 32,000  Level Boston Center
Mon 07:14:34 AM 41.8622 -71.6986 218° Southwest 368 423 32,000  Level Boston Center
Mon 07:15:36 AM 41.7794 -71.7747 214° Southwest 368 423 32,000  Level Boston Center
Mon 07:16:34 AM 41.6986 -71.8533 216° Southwest 368 423 32,000  Level Boston Center
Mon 07:17:34 AM 41.6178 -71.9347 217° Southwest 368 423 32,000  Level Boston Center
Mon 07:18:36 AM 41.5389 -72.0103 216° Southwest 363 418 32,000  Level Boston Center
Mon 07:19:34 AM 41.4578 -72.0883 216° Southwest 363 418 32,000  Level Boston Center
Mon 07:20:34 AM 41.3747 -72.1717 217° Southwest 369 425 32,000  Level Boston Center
Mon 07:21:36 AM 41.2894 -72.2522 215° Southwest 375 432 32,000  Level Boston Center
Mon 07:22:36 AM 41.2019 -72.3325 215° Southwest 381 438 32,000  Level Boston Center
Mon 07:23:35 AM 41.1167 -72.4125 215° Southwest 381 438 32,000  Level Boston Center
Mon 07:24:36 AM 41.0478 -72.4786 216° Southwest 381 438 32,000  Level Boston Center
Mon 07:25:36 AM 40.9436 -72.5775 216° Southwest 381 438 32,000 -500 Level Boston Center
Mon 07:26:36 AM 40.8622 -72.6597 217° Southwest 381 438 31,000 -1,525 Descending Boston Center
Mon 07:27:34 AM 40.7744 -72.7389 214° Southwest 381 438 29,000 -2,186 Descending Boston Center
Mon 07:28:34 AM 40.6806 -72.8233 214° Southwest 392 451 26,700 -2,043 Descending Boston Center
Mon 07:30:42 AM 40.5033 -72.9900 216° Southwest 397 457 22,600 -1,947 Descending New York Center
Mon 07:31:42 AM 40.4186 -73.0692 215° Southwest 392 451 20,600 -1,311 Descending New York Center
Mon 07:32:41 AM 40.3358 -73.1481 216° Southwest 386 444 20,000 -303 Descending New York Center
Mon 07:33:41 AM 40.2528 -73.2242 215° Southwest 386 444 20,000  Level New York Center
Mon 07:34:42 AM 40.1681 -73.2969 213° Southwest 380 437 20,000  Level New York Center
Mon 07:35:42 AM 40.0828 -73.3781 216° Southwest 380 437 20,000  Level New York Center
Mon 07:36:41 AM 40.0000 -73.4536 215° Southwest 380 437 20,000  Level New York Center
Mon 07:37:42 AM 39.9147 -73.5342 216° Southwest 380 437 20,000  Level New York Center
Mon 07:38:41 AM 39.8392 -73.6367 226° Southwest 380 437 20,000  Level New York Center
Mon 07:39:41 AM 39.7761 -73.7392 231° Southwest 367 422 20,000  Level New York Center
Mon 07:40:01 AM 39.7539 -73.7750 231° Southwest 368 423 20,000 -750 Level Washington Center
Mon 07:41:01 AM 39.6928 -73.8764 232° Southwest 374 430 19,000 -1,450 Descending Washington Center
Mon 07:42:01 AM 39.6275 -73.9750 229° Southwest 369 425 17,100 -1,867 Descending Washington Center
Mon 07:42:31 AM 39.5961 -74.0228 230° Southwest 354 407 16,200 -1,800 Descending FAA TRACON SMA TRACON (SMA)
Mon 07:42:51 AM 39.5772 -74.0544 232° Southwest 353 406 15,600 -1,800 Descending FAA TRACON SMA TRACON (SMA)
Mon 07:43:11 AM 39.5575 -74.0853 230° Southwest 351 404 15,000 -1,800 Descending FAA TRACON SMA TRACON (SMA)
Mon 07:43:31 AM 39.5381 -74.1164 231° Southwest 344 396 14,400 -1,500 Descending FAA TRACON SMA TRACON (SMA)
Mon 07:43:51 AM 39.5281 -74.1517 250° West 331 381 14,000 -600 Descending FAA TRACON SMA TRACON (SMA)
Mon 07:44:11 AM 39.5253 -74.1956 265° West 345 397 14,000  Level FAA TRACON SMA TRACON (SMA)
Mon 07:44:31 AM 39.5256 -74.2353 271° West 338 389 14,000  Level FAA TRACON SMA TRACON (SMA)
Mon 07:44:51 AM 39.5264 -74.2808 271° West 338 389 14,000  Level FAA TRACON SMA TRACON (SMA)
Mon 07:45:11 AM 39.5261 -74.3197 269° West 338 389 14,000  Level FAA TRACON SMA TRACON (SMA)
Mon 07:45:31 AM 39.5272 -74.3567 272° West 338 389 14,000 -300 Level FAA TRACON SMA TRACON (SMA)
Mon 07:45:51 AM 39.5275 -74.3939 271° West 336 387 13,800 -1,350 Descending FAA TRACON SMA TRACON (SMA)
Mon 07:46:11 AM 39.5283 -74.4397 271° West 332 382 13,100 -1,800 Descending FAA TRACON SMA TRACON (SMA)
Mon 07:46:31 AM 39.5292 -74.4739 272° West 315 362 12,600 -1,500 Descending FAA TRACON SMA TRACON (SMA)
Mon 07:46:51 AM 39.5294 -74.5067 271° West 300 345 12,100 -1,650 Descending FAA TRACON SMA TRACON (SMA)
Mon 07:47:11 AM 39.5308 -74.5444 273° West 273 314 11,500 -1,800 Descending FAA TRACON SMA TRACON (SMA)
Mon 07:47:31 AM 39.5314 -74.5736 271° West 269 310 10,900 -1,800 Descending FAA TRACON SMA TRACON (SMA)
Mon 07:47:51 AM 39.5328 -74.6025 274° West 262 302 10,300 -2,250 Descending FAA TRACON SMA TRACON (SMA)
Mon 07:48:11 AM 39.5325 -74.6389 269° West 261 300 9,400 -1,950 Descending FAA TRACON SMA TRACON (SMA)
Mon 07:48:31 AM 39.5336 -74.6667 273° West 260 299 9,000 -600 Descending FAA TRACON SMA TRACON (SMA)
Mon 07:48:51 AM 39.5333 -74.6950 269° West 255 293 9,000  Level FAA TRACON SMA TRACON (SMA)
Mon 07:49:11 AM 39.5339 -74.7300 271° West 253 291 9,000  Level FAA TRACON SMA TRACON (SMA)
Mon 07:49:31 AM 39.5344 -74.7578 271° West 252 290 9,000  Level FAA TRACON SMA TRACON (SMA)
Mon 07:49:51 AM 39.5347 -74.7861 271° West 254 292 9,000 -450 Level FAA TRACON SMA TRACON (SMA)
Mon 07:50:11 AM 39.5350 -74.8208 271° West 255 293 8,700 -900 Descending FAA TRACON SMA TRACON (SMA)
Mon 07:50:31 AM 39.5361 -74.8500 273° West 254 292 8,400 -1,050 Descending FAA TRACON SMA TRACON (SMA)
Mon 07:50:51 AM 39.5458 -74.8747 297° West 258 297 8,000 -1,350 Descending FAA TRACON SMA TRACON (SMA)
Mon 07:51:11 AM 39.5692 -74.8911 332° Northwest 263 303 7,500 -1,350 Descending FAA TRACON SMA TRACON (SMA)
Mon 07:51:31 AM 39.5950 -74.8950 353° North 267 307 7,100 -1,200 Descending FAA TRACON SMA TRACON (SMA)
Mon 07:51:51 AM 39.6167 -74.8983 353° North 267 307 6,700 -1,350 Descending FAA TRACON SMA TRACON (SMA)
Mon 07:52:11 AM 39.6431 -74.9022 354° North 259 298 6,200 -750 Descending FAA TRACON SMA TRACON (SMA)
Mon 07:52:31 AM 39.6614 -74.9056 352° North 207 238 6,200 -300 Level FAA TRACON SMA TRACON (SMA)
Mon 07:52:51 AM 39.6786 -74.9083 353° North 187 215 6,000 -300 Descending FAA TRACON SMA TRACON (SMA)
Mon 07:53:11 AM 39.6992 -74.9108 355° North 200 230 6,000  Level FAA TRACON SMA TRACON (SMA)
Mon 07:53:31 AM 39.7167 -74.9131 354° North 195 224 6,000 -150 Level FAA TRACON SMA TRACON (SMA)
Mon 07:53:51 AM 39.7331 -74.9172 349° North 195 224 5,900 -900 Descending FAA TRACON SMA TRACON (SMA)
Mon 07:54:11 AM 39.7525 -74.9247 343° North 186 214 5,400 -1,500 Descending FAA TRACON SMA TRACON (SMA)
Mon 07:54:31 AM 39.7681 -74.9308 343° North 192 221 4,900 -1,650 Descending FAA TRACON SMA TRACON (SMA)
Mon 07:54:51 AM 39.7867 -74.9375 345° North 190 219 4,300 -1,350 Descending FAA TRACON SMA TRACON (SMA)
Mon 07:55:11 AM 39.8036 -74.9444 343° North 193 222 4,000 -450 Descending FAA TRACON SMA TRACON (SMA)
Mon 07:55:31 AM 39.8192 -74.9508 342° North 191 220 4,000  Level FAA TRACON SMA TRACON (SMA)
Mon 07:55:51 AM 39.8386 -74.9586 343° North 191 220 4,000 -300 Level FAA TRACON SMA TRACON (SMA)
Mon 07:56:11 AM 39.8531 -74.9678 334° Northwest 182 209 3,800 -750 Descending FAA TRACON SMA TRACON (SMA)
Mon 07:56:31 AM 39.8608 -74.9850 300° West 179 206 3,500 -1,050 Descending FAA TRACON SMA TRACON (SMA)
Mon 07:56:51 AM 39.8703 -75.0067 300° West 176 203 3,100 -750 Descending FAA TRACON SMA TRACON (SMA)
Mon 07:57:11 AM 39.8775 -75.0239 299° West 178 205 3,000 -150 Descending FAA TRACON SMA TRACON (SMA)
Mon 07:57:31 AM 39.8844 -75.0417 297° West 178 205 3,000  Level FAA TRACON SMA TRACON (SMA)
Mon 07:57:51 AM 39.8933 -75.0639 298° West 178 205 3,000 -750 Level FAA TRACON SMA TRACON (SMA)
Mon 07:58:11 AM 39.9000 -75.0811 297° West 178 205 2,500 -1,500 Descending FAA TRACON SMA TRACON (SMA)
Mon 07:58:31 AM 39.9000 -75.1003 270° West 189 217 2,000 -1,500 Descending FAA TRACON SMA TRACON (SMA)

Login

Don't have an account? Register now (free) for customized features, flight alerts, and more!